sensor_id;sensor_type;location;lat;lon;timestamp;P1;durP1;ratioP1;P2;durP2;ratioP2
82387;SDS011;72027;47.420;9.310;2024-03-23T00:53:27;2.58;;;1.88;;
82387;SDS011;72027;47.420;9.310;2024-03-23T00:55:54;7.43;;;2.83;;
82387;SDS011;72027;47.420;9.310;2024-03-23T00:58:20;2.93;;;2.20;;
82387;SDS011;72027;47.420;9.310;2024-03-23T01:00:47;2.38;;;1.92;;
82387;SDS011;72027;47.420;9.310;2024-03-23T01:03:13;2.27;;;1.83;;
82387;SDS011;72027;47.420;9.310;2024-03-23T01:08:05;2.85;;;1.77;;
82387;SDS011;72027;47.420;9.310;2024-03-23T01:10:34;5.45;;;2.03;;
82387;SDS011;72027;47.420;9.310;2024-03-23T01:13:00;4.03;;;2.20;;
82387;SDS011;72027;47.420;9.310;2024-03-23T01:15:27;5.43;;;1.65;;
82387;SDS011;72027;47.420;9.310;2024-03-23T01:17:53;4.17;;;2.57;;
82387;SDS011;72027;47.420;9.310;2024-03-23T01:20:20;11.77;;;2.67;;
82387;SDS011;72027;47.420;9.310;2024-03-23T01:22:46;3.53;;;1.60;;
82387;SDS011;72027;47.420;9.310;2024-03-23T01:25:13;6.82;;;2.30;;
82387;SDS011;72027;47.420;9.310;2024-03-23T01:27:40;2.73;;;1.87;;
82387;SDS011;72027;47.420;9.310;2024-03-23T01:30:07;3.50;;;1.88;;
82387;SDS011;72027;47.420;9.310;2024-03-23T01:32:33;4.05;;;2.20;;
82387;SDS011;72027;47.420;9.310;2024-03-23T01:35:00;2.55;;;1.90;;
82387;SDS011;72027;47.420;9.310;2024-03-23T01:37:26;3.88;;;1.98;;
82387;SDS011;72027;47.420;9.310;2024-03-23T01:42:19;3.85;;;2.03;;
82387;SDS011;72027;47.420;9.310;2024-03-23T01:44:47;4.43;;;2.75;;
82387;SDS011;72027;47.420;9.310;2024-03-23T01:47:13;4.78;;;2.22;;
82387;SDS011;72027;47.420;9.310;2024-03-23T01:52:06;7.05;;;2.33;;
82387;SDS011;72027;47.420;9.310;2024-03-23T01:54:33;5.20;;;2.70;;
82387;SDS011;72027;47.420;9.310;2024-03-23T01:57:00;4.28;;;2.00;;
82387;SDS011;72027;47.420;9.310;2024-03-23T01:59:27;3.38;;;2.17;;
82387;SDS011;72027;47.420;9.310;2024-03-23T02:01:54;3.30;;;2.20;;
82387;SDS011;72027;47.420;9.310;2024-03-23T02:04:22;7.72;;;2.47;;
82387;SDS011;72027;47.420;9.310;2024-03-23T02:06:48;4.30;;;2.20;;
82387;SDS011;72027;47.420;9.310;2024-03-23T02:09:15;5.50;;;2.05;;
82387;SDS011;72027;47.420;9.310;2024-03-23T02:11:41;9.13;;;2.73;;
82387;SDS011;72027;47.420;9.310;2024-03-23T02:16:33;4.63;;;2.30;;
82387;SDS011;72027;47.420;9.310;2024-03-23T02:19:02;4.85;;;2.17;;
82387;SDS011;72027;47.420;9.310;2024-03-23T02:21:27;4.18;;;2.10;;
82387;SDS011;72027;47.420;9.310;2024-03-23T02:23:59;2.58;;;1.55;;
82387;SDS011;72027;47.420;9.310;2024-03-23T02:26:25;5.63;;;1.88;;
82387;SDS011;72027;47.420;9.310;2024-03-23T02:28:52;8.65;;;2.08;;
82387;SDS011;72027;47.420;9.310;2024-03-23T02:31:18;3.27;;;2.30;;
82387;SDS011;72027;47.420;9.310;2024-03-23T02:33:45;3.40;;;1.73;;
82387;SDS011;72027;47.420;9.310;2024-03-23T02:36:11;3.73;;;2.00;;
82387;SDS011;72027;47.420;9.310;2024-03-23T02:38:37;4.47;;;1.88;;
82387;SDS011;72027;47.420;9.310;2024-03-23T02:41:05;2.87;;;1.50;;
82387;SDS011;72027;47.420;9.310;2024-03-23T02:43:32;4.53;;;2.10;;
82387;SDS011;72027;47.420;9.310;2024-03-23T02:45:57;4.47;;;1.70;;
82387;SDS011;72027;47.420;9.310;2024-03-23T02:48:24;3.17;;;1.80;;
82387;SDS011;72027;47.420;9.310;2024-03-23T02:50:50;3.60;;;1.90;;
82387;SDS011;72027;47.420;9.310;2024-03-23T02:53:17;4.25;;;1.90;;
82387;SDS011;72027;47.420;9.310;2024-03-23T02:55:43;2.55;;;1.65;;
82387;SDS011;72027;47.420;9.310;2024-03-23T03:00:37;1.92;;;1.63;;
82387;SDS011;72027;47.420;9.310;2024-03-23T03:03:04;1.85;;;1.70;;
82387;SDS011;72027;47.420;9.310;2024-03-23T03:05:30;8.73;;;1.88;;
82387;SDS011;72027;47.420;9.310;2024-03-23T03:07:57;3.97;;;1.70;;
82387;SDS011;72027;47.420;9.310;2024-03-23T03:10:23;8.13;;;2.40;;
82387;SDS011;72027;47.420;9.310;2024-03-23T03:12:49;3.97;;;2.35;;
82387;SDS011;72027;47.420;9.310;2024-03-23T03:15:17;4.23;;;1.53;;
82387;SDS011;72027;47.420;9.310;2024-03-23T03:17:44;5.25;;;1.95;;
82387;SDS011;72027;47.420;9.310;2024-03-23T03:20:10;4.90;;;1.85;;
82387;SDS011;72027;47.420;9.310;2024-03-23T03:22:38;5.22;;;2.15;;
82387;SDS011;72027;47.420;9.310;2024-03-23T03:25:05;5.80;;;1.80;;
82387;SDS011;72027;47.420;9.310;2024-03-23T03:27:33;4.05;;;2.00;;
82387;SDS011;72027;47.420;9.310;2024-03-23T03:29:59;6.78;;;2.33;;
82387;SDS011;72027;47.420;9.310;2024-03-23T03:32:29;3.17;;;2.00;;
82387;SDS011;72027;47.420;9.310;2024-03-23T03:34:55;5.88;;;2.33;;
82387;SDS011;72027;47.420;9.310;2024-03-23T03:39:47;3.72;;;1.60;;
82387;SDS011;72027;47.420;9.310;2024-03-23T03:42:14;2.15;;;1.40;;
82387;SDS011;72027;47.420;9.310;2024-03-23T03:44:40;8.23;;;1.90;;
82387;SDS011;72027;47.420;9.310;2024-03-23T03:47:07;2.75;;;1.75;;
82387;SDS011;72027;47.420;9.310;2024-03-23T03:49:34;4.43;;;1.90;;
82387;SDS011;72027;47.420;9.310;2024-03-23T03:52:01;2.65;;;1.73;;
82387;SDS011;72027;47.420;9.310;2024-03-23T03:54:27;9.13;;;1.77;;
82387;SDS011;72027;47.420;9.310;2024-03-23T03:56:54;4.68;;;1.85;;
82387;SDS011;72027;47.420;9.310;2024-03-23T03:59:20;3.15;;;1.73;;
82387;SDS011;72027;47.420;9.310;2024-03-23T04:01:47;2.75;;;1.45;;
82387;SDS011;72027;47.420;9.310;2024-03-23T04:04:13;3.33;;;2.33;;
82387;SDS011;72027;47.420;9.310;2024-03-23T04:06:43;5.63;;;2.75;;
82387;SDS011;72027;47.420;9.310;2024-03-23T04:09:09;7.15;;;1.70;;
82387;SDS011;72027;47.420;9.310;2024-03-23T04:11:36;5.78;;;1.40;;
82387;SDS011;72027;47.420;9.310;2024-03-23T04:14:02;3.77;;;1.63;;
82387;SDS011;72027;47.420;9.310;2024-03-23T04:18:55;4.45;;;1.52;;
82387;SDS011;72027;47.420;9.310;2024-03-23T04:23:49;4.05;;;1.55;;
82387;SDS011;72027;47.420;9.310;2024-03-23T04:26:16;1.65;;;1.42;;
82387;SDS011;72027;47.420;9.310;2024-03-23T04:28:42;5.23;;;1.13;;
82387;SDS011;72027;47.420;9.310;2024-03-23T04:31:09;2.55;;;1.25;;
82387;SDS011;72027;47.420;9.310;2024-03-23T04:33:35;2.43;;;1.20;;
82387;SDS011;72027;47.420;9.310;2024-03-23T04:36:02;4.68;;;1.25;;
82387;SDS011;72027;47.420;9.310;2024-03-23T04:38:28;1.63;;;1.20;;
82387;SDS011;72027;47.420;9.310;2024-03-23T04:40:56;5.03;;;1.45;;
82387;SDS011;72027;47.420;9.310;2024-03-23T04:43:24;5.15;;;1.58;;
82387;SDS011;72027;47.420;9.310;2024-03-23T04:45:51;1.73;;;1.52;;
82387;SDS011;72027;47.420;9.310;2024-03-23T04:48:19;8.68;;;2.55;;
82387;SDS011;72027;47.420;9.310;2024-03-23T04:50:46;3.03;;;1.77;;
82387;SDS011;72027;47.420;9.310;2024-03-23T04:55:38;3.92;;;1.77;;
82387;SDS011;72027;47.420;9.310;2024-03-23T05:00:32;3.80;;;2.10;;
82387;SDS011;72027;47.420;9.310;2024-03-23T05:02:59;1.83;;;1.27;;
82387;SDS011;72027;47.420;9.310;2024-03-23T05:07:51;2.85;;;1.80;;
82387;SDS011;72027;47.420;9.310;2024-03-23T05:10:18;2.53;;;1.40;;
82387;SDS011;72027;47.420;9.310;2024-03-23T05:12:44;4.23;;;2.00;;
82387;SDS011;72027;47.420;9.310;2024-03-23T05:15:12;2.47;;;1.50;;
82387;SDS011;72027;47.420;9.310;2024-03-23T05:17:38;5.38;;;2.17;;
82387;SDS011;72027;47.420;9.310;2024-03-23T05:22:35;2.47;;;1.65;;
82387;SDS011;72027;47.420;9.310;2024-03-23T05:25:02;4.95;;;1.80;;
82387;SDS011;72027;47.420;9.310;2024-03-23T05:27:30;6.60;;;2.10;;
82387;SDS011;72027;47.420;9.310;2024-03-23T05:29:57;4.05;;;1.42;;
82387;SDS011;72027;47.420;9.310;2024-03-23T05:32:25;3.47;;;1.70;;
82387;SDS011;72027;47.420;9.310;2024-03-23T05:34:53;8.50;;;2.08;;
82387;SDS011;72027;47.420;9.310;2024-03-23T05:37:21;4.13;;;1.73;;
82387;SDS011;72027;47.420;9.310;2024-03-23T05:39:49;3.35;;;1.90;;
82387;SDS011;72027;47.420;9.310;2024-03-23T05:42:15;6.45;;;1.98;;
82387;SDS011;72027;47.420;9.310;2024-03-23T05:44:43;2.45;;;1.77;;
82387;SDS011;72027;47.420;9.310;2024-03-23T05:47:10;3.85;;;2.03;;
82387;SDS011;72027;47.420;9.310;2024-03-23T05:49:39;5.05;;;2.13;;
82387;SDS011;72027;47.420;9.310;2024-03-23T05:52:07;2.78;;;2.05;;
82387;SDS011;72027;47.420;9.310;2024-03-23T05:54:34;2.85;;;1.80;;
82387;SDS011;72027;47.420;9.310;2024-03-23T05:57:00;5.88;;;2.35;;
82387;SDS011;72027;47.420;9.310;2024-03-23T05:59:27;3.88;;;1.77;;
82387;SDS011;72027;47.420;9.310;2024-03-23T06:01:53;1.40;;;1.30;;
82387;SDS011;72027;47.420;9.310;2024-03-23T06:04:20;5.45;;;1.92;;
82387;SDS011;72027;47.420;9.310;2024-03-23T06:06:48;4.88;;;1.45;;
82387;SDS011;72027;47.420;9.310;2024-03-23T06:09:15;4.05;;;1.92;;
82387;SDS011;72027;47.420;9.310;2024-03-23T06:11:41;2.07;;;1.60;;
82387;SDS011;72027;47.420;9.310;2024-03-23T06:14:07;6.35;;;2.47;;
82387;SDS011;72027;47.420;9.310;2024-03-23T06:16:33;10.50;;;2.30;;
82387;SDS011;72027;47.420;9.310;2024-03-23T06:19:00;9.48;;;2.63;;
82387;SDS011;72027;47.420;9.310;2024-03-23T06:21:29;4.45;;;2.83;;
82387;SDS011;72027;47.420;9.310;2024-03-23T06:26:23;11.33;;;3.10;;
82387;SDS011;72027;47.420;9.310;2024-03-23T06:31:15;9.52;;;3.00;;
82387;SDS011;72027;47.420;9.310;2024-03-23T06:33:43;6.47;;;2.88;;
82387;SDS011;72027;47.420;9.310;2024-03-23T06:36:09;4.73;;;3.47;;
82387;SDS011;72027;47.420;9.310;2024-03-23T06:38:37;5.38;;;3.05;;
82387;SDS011;72027;47.420;9.310;2024-03-23T06:41:04;9.32;;;3.58;;
82387;SDS011;72027;47.420;9.310;2024-03-23T06:43:32;10.70;;;4.53;;
82387;SDS011;72027;47.420;9.310;2024-03-23T06:45:57;9.00;;;3.80;;
82387;SDS011;72027;47.420;9.310;2024-03-23T06:48:24;9.13;;;4.53;;
82387;SDS011;72027;47.420;9.310;2024-03-23T06:50:55;8.50;;;4.30;;
82387;SDS011;72027;47.420;9.310;2024-03-23T06:53:22;9.10;;;4.72;;
82387;SDS011;72027;47.420;9.310;2024-03-23T06:55:49;9.70;;;4.85;;
82387;SDS011;72027;47.420;9.310;2024-03-23T06:58:18;19.58;;;5.68;;
82387;SDS011;72027;47.420;9.310;2024-03-23T07:00:45;8.68;;;5.28;;
82387;SDS011;72027;47.420;9.310;2024-03-23T07:03:12;11.10;;;5.95;;
82387;SDS011;72027;47.420;9.310;2024-03-23T07:05:37;7.87;;;4.17;;
82387;SDS011;72027;47.420;9.310;2024-03-23T07:08:05;9.45;;;4.85;;
82387;SDS011;72027;47.420;9.310;2024-03-23T07:10:31;8.90;;;4.70;;
82387;SDS011;72027;47.420;9.310;2024-03-23T07:12:58;8.52;;;4.53;;
82387;SDS011;72027;47.420;9.310;2024-03-23T07:15:25;13.13;;;4.57;;
82387;SDS011;72027;47.420;9.310;2024-03-23T07:17:52;8.68;;;3.33;;
82387;SDS011;72027;47.420;9.310;2024-03-23T07:20:18;6.13;;;4.27;;
82387;SDS011;72027;47.420;9.310;2024-03-23T07:22:45;6.45;;;3.92;;
82387;SDS011;72027;47.420;9.310;2024-03-23T07:25:11;10.40;;;3.87;;
82387;SDS011;72027;47.420;9.310;2024-03-23T07:30:04;10.30;;;4.82;;
82387;SDS011;72027;47.420;9.310;2024-03-23T07:32:33;6.20;;;3.85;;
82387;SDS011;72027;47.420;9.310;2024-03-23T07:34:59;6.97;;;3.95;;
82387;SDS011;72027;47.420;9.310;2024-03-23T07:39:51;6.72;;;4.10;;
82387;SDS011;72027;47.420;9.310;2024-03-23T07:42:18;7.22;;;4.55;;
82387;SDS011;72027;47.420;9.310;2024-03-23T07:44:44;7.23;;;5.27;;
82387;SDS011;72027;47.420;9.310;2024-03-23T07:47:12;7.20;;;4.85;;
82387;SDS011;72027;47.420;9.310;2024-03-23T07:49:39;5.17;;;4.33;;
82387;SDS011;72027;47.420;9.310;2024-03-23T07:52:06;6.13;;;4.05;;
82387;SDS011;72027;47.420;9.310;2024-03-23T07:54:33;8.10;;;4.90;;
82387;SDS011;72027;47.420;9.310;2024-03-23T07:57:00;7.32;;;4.30;;
82387;SDS011;72027;47.420;9.310;2024-03-23T07:59:26;11.03;;;4.70;;
82387;SDS011;72027;47.420;9.310;2024-03-23T08:01:56;6.72;;;4.05;;
82387;SDS011;72027;47.420;9.310;2024-03-23T08:04:22;7.10;;;4.97;;
82387;SDS011;72027;47.420;9.310;2024-03-23T08:06:50;9.05;;;5.45;;
82387;SDS011;72027;47.420;9.310;2024-03-23T08:09:16;13.82;;;5.88;;
82387;SDS011;72027;47.420;9.310;2024-03-23T08:11:44;8.45;;;6.63;;
82387;SDS011;72027;47.420;9.310;2024-03-23T08:14:12;6.60;;;4.18;;
82387;SDS011;72027;47.420;9.310;2024-03-23T08:16:39;6.13;;;4.35;;
82387;SDS011;72027;47.420;9.310;2024-03-23T08:19:05;8.35;;;4.68;;
82387;SDS011;72027;47.420;9.310;2024-03-23T08:21:34;5.93;;;4.53;;
82387;SDS011;72027;47.420;9.310;2024-03-23T08:24:01;5.15;;;4.28;;
82387;SDS011;72027;47.420;9.310;2024-03-23T08:26:29;6.00;;;4.30;;
82387;SDS011;72027;47.420;9.310;2024-03-23T08:28:55;7.50;;;4.67;;
82387;SDS011;72027;47.420;9.310;2024-03-23T08:31:22;9.45;;;5.05;;
82387;SDS011;72027;47.420;9.310;2024-03-23T08:33:48;7.60;;;4.10;;
82387;SDS011;72027;47.420;9.310;2024-03-23T08:36:15;5.85;;;4.10;;
82387;SDS011;72027;47.420;9.310;2024-03-23T08:41:10;5.50;;;4.13;;
82387;SDS011;72027;47.420;9.310;2024-03-23T08:43:36;8.43;;;4.20;;
82387;SDS011;72027;47.420;9.310;2024-03-23T08:46:04;4.32;;;3.40;;
82387;SDS011;72027;47.420;9.310;2024-03-23T08:48:32;8.98;;;5.47;;
82387;SDS011;72027;47.420;9.310;2024-03-23T08:50:59;19.75;;;6.95;;
82387;SDS011;72027;47.420;9.310;2024-03-23T08:53:27;11.05;;;5.43;;
82387;SDS011;72027;47.420;9.310;2024-03-23T08:55:54;11.23;;;5.18;;
82387;SDS011;72027;47.420;9.310;2024-03-23T08:58:21;6.10;;;4.30;;
82387;SDS011;72027;47.420;9.310;2024-03-23T09:00:50;4.18;;;2.50;;
82387;SDS011;72027;47.420;9.310;2024-03-23T09:03:16;5.72;;;2.47;;
82387;SDS011;72027;47.420;9.310;2024-03-23T09:05:43;2.30;;;1.75;;
82387;SDS011;72027;47.420;9.310;2024-03-23T09:08:09;4.07;;;1.60;;
82387;SDS011;72027;47.420;9.310;2024-03-23T09:10:38;2.78;;;1.20;;
82387;SDS011;72027;47.420;9.310;2024-03-23T09:13:04;4.65;;;1.77;;
82387;SDS011;72027;47.420;9.310;2024-03-23T09:15:34;1.23;;;1.00;;
82387;SDS011;72027;47.420;9.310;2024-03-23T09:18:00;0.95;;;0.85;;
82387;SDS011;72027;47.420;9.310;2024-03-23T09:20:27;1.33;;;1.10;;
82387;SDS011;72027;47.420;9.310;2024-03-23T09:22:53;0.87;;;0.87;;
82387;SDS011;72027;47.420;9.310;2024-03-23T09:25:20;1.70;;;0.85;;
82387;SDS011;72027;47.420;9.310;2024-03-23T09:27:46;2.50;;;0.77;;
82387;SDS011;72027;47.420;9.310;2024-03-23T09:30:14;0.93;;;0.70;;
82387;SDS011;72027;47.420;9.310;2024-03-23T09:32:43;0.77;;;0.77;;
82387;SDS011;72027;47.420;9.310;2024-03-23T09:35:10;0.80;;;0.70;;
82387;SDS011;72027;47.420;9.310;2024-03-23T09:37:37;2.10;;;0.85;;
82387;SDS011;72027;47.420;9.310;2024-03-23T09:40:07;1.33;;;0.73;;
82387;SDS011;72027;47.420;9.310;2024-03-23T09:42:35;2.67;;;0.82;;
82387;SDS011;72027;47.420;9.310;2024-03-23T09:45:02;3.72;;;0.70;;
82387;SDS011;72027;47.420;9.310;2024-03-23T09:47:32;1.85;;;1.00;;
82387;SDS011;72027;47.420;9.310;2024-03-23T09:50:01;2.70;;;1.02;;
82387;SDS011;72027;47.420;9.310;2024-03-23T09:52:30;1.73;;;0.70;;
82387;SDS011;72027;47.420;9.310;2024-03-23T09:54:57;3.13;;;1.05;;
82387;SDS011;72027;47.420;9.310;2024-03-23T09:57:23;3.50;;;1.30;;
82387;SDS011;72027;47.420;9.310;2024-03-23T09:59:50;3.25;;;1.48;;
82387;SDS011;72027;47.420;9.310;2024-03-23T10:02:16;5.75;;;1.73;;
82387;SDS011;72027;47.420;9.310;2024-03-23T10:04:45;1.95;;;0.90;;
82387;SDS011;72027;47.420;9.310;2024-03-23T10:07:13;3.37;;;1.03;;
82387;SDS011;72027;47.420;9.310;2024-03-23T10:09:42;6.47;;;1.40;;
82387;SDS011;72027;47.420;9.310;2024-03-23T10:12:09;5.68;;;1.50;;
82387;SDS011;72027;47.420;9.310;2024-03-23T10:14:37;8.40;;;2.22;;
82387;SDS011;72027;47.420;9.310;2024-03-23T10:17:13;14.80;;;1.70;;
82387;SDS011;72027;47.420;9.310;2024-03-23T10:19:43;4.72;;;1.20;;
82387;SDS011;72027;47.420;9.310;2024-03-23T10:22:09;4.10;;;1.17;;
82387;SDS011;72027;47.420;9.310;2024-03-23T10:24:41;5.32;;;1.58;;
82387;SDS011;72027;47.420;9.310;2024-03-23T10:27:07;6.28;;;1.67;;
82387;SDS011;72027;47.420;9.310;2024-03-23T10:32:10;3.05;;;1.38;;
82387;SDS011;72027;47.420;9.310;2024-03-23T10:34:38;5.93;;;1.77;;
82387;SDS011;72027;47.420;9.310;2024-03-23T10:37:04;9.32;;;2.92;;
82387;SDS011;72027;47.420;9.310;2024-03-23T10:39:32;3.65;;;1.95;;
82387;SDS011;72027;47.420;9.310;2024-03-23T10:42:01;10.15;;;1.85;;
82387;SDS011;72027;47.420;9.310;2024-03-23T10:44:29;9.80;;;2.15;;
82387;SDS011;72027;47.420;9.310;2024-03-23T10:46:56;14.13;;;2.63;;
82387;SDS011;72027;47.420;9.310;2024-03-23T10:49:26;12.85;;;2.80;;
82387;SDS011;72027;47.420;9.310;2024-03-23T10:51:55;9.35;;;2.50;;
82387;SDS011;72027;47.420;9.310;2024-03-23T10:54:24;14.18;;;3.45;;
82387;SDS011;72027;47.420;9.310;2024-03-23T10:56:51;8.00;;;2.67;;
82387;SDS011;72027;47.420;9.310;2024-03-23T10:59:24;6.40;;;1.88;;
82387;SDS011;72027;47.420;9.310;2024-03-23T11:01:55;13.38;;;2.53;;
82387;SDS011;72027;47.420;9.310;2024-03-23T11:04:32;12.88;;;3.20;;
82387;SDS011;72027;47.420;9.310;2024-03-23T11:06:59;11.32;;;3.30;;
82387;SDS011;72027;47.420;9.310;2024-03-23T11:09:39;12.23;;;2.05;;
82387;SDS011;72027;47.420;9.310;2024-03-23T11:12:17;13.27;;;2.28;;
82387;SDS011;72027;47.420;9.310;2024-03-23T11:14:53;5.75;;;1.80;;
82387;SDS011;72027;47.420;9.310;2024-03-23T11:17:21;12.93;;;2.40;;
82387;SDS011;72027;47.420;9.310;2024-03-23T11:19:55;20.95;;;2.83;;
82387;SDS011;72027;47.420;9.310;2024-03-23T11:22:38;8.90;;;2.72;;
82387;SDS011;72027;47.420;9.310;2024-03-23T11:25:16;7.97;;;2.33;;
82387;SDS011;72027;47.420;9.310;2024-03-23T11:27:43;8.20;;;1.80;;
82387;SDS011;72027;47.420;9.310;2024-03-23T11:30:15;13.18;;;3.17;;
82387;SDS011;72027;47.420;9.310;2024-03-23T11:32:43;17.60;;;2.60;;
82387;SDS011;72027;47.420;9.310;2024-03-23T11:35:24;11.85;;;2.35;;
82387;SDS011;72027;47.420;9.310;2024-03-23T11:38:00;7.97;;;2.35;;
82387;SDS011;72027;47.420;9.310;2024-03-23T11:40:31;7.15;;;2.70;;
82387;SDS011;72027;47.420;9.310;2024-03-23T11:42:58;11.95;;;4.15;;
82387;SDS011;72027;47.420;9.310;2024-03-23T11:45:26;10.82;;;2.05;;
82387;SDS011;72027;47.420;9.310;2024-03-23T11:48:05;10.40;;;2.35;;
82387;SDS011;72027;47.420;9.310;2024-03-23T11:50:34;8.55;;;2.40;;
82387;SDS011;72027;47.420;9.310;2024-03-23T11:53:08;14.55;;;3.88;;
82387;SDS011;72027;47.420;9.310;2024-03-23T11:55:43;12.00;;;2.58;;
82387;SDS011;72027;47.420;9.310;2024-03-23T11:58:12;10.35;;;2.35;;
82387;SDS011;72027;47.420;9.310;2024-03-23T12:00:41;11.70;;;2.42;;
82387;SDS011;72027;47.420;9.310;2024-03-23T12:03:07;7.22;;;2.03;;
82387;SDS011;72027;47.420;9.310;2024-03-23T12:05:35;13.93;;;2.33;;
82387;SDS011;72027;47.420;9.310;2024-03-23T12:08:20;9.05;;;3.13;;
82387;SDS011;72027;47.420;9.310;2024-03-23T12:10:50;11.20;;;2.78;;
82387;SDS011;72027;47.420;9.310;2024-03-23T12:13:18;5.95;;;2.08;;
82387;SDS011;72027;47.420;9.310;2024-03-23T12:15:49;5.70;;;2.35;;
82387;SDS011;72027;47.420;9.310;2024-03-23T12:18:16;6.07;;;2.33;;
82387;SDS011;72027;47.420;9.310;2024-03-23T12:20:43;12.90;;;1.67;;
82387;SDS011;72027;47.420;9.310;2024-03-23T12:23:10;13.77;;;2.60;;
82387;SDS011;72027;47.420;9.310;2024-03-23T12:25:41;16.58;;;2.22;;
82387;SDS011;72027;47.420;9.310;2024-03-23T12:28:07;7.23;;;2.43;;
82387;SDS011;72027;47.420;9.310;2024-03-23T12:30:35;8.65;;;3.13;;
82387;SDS011;72027;47.420;9.310;2024-03-23T12:33:03;7.05;;;1.55;;
82387;SDS011;72027;47.420;9.310;2024-03-23T12:35:30;10.23;;;2.10;;
82387;SDS011;72027;47.420;9.310;2024-03-23T12:37:56;6.73;;;1.93;;
82387;SDS011;72027;47.420;9.310;2024-03-23T12:40:23;6.63;;;1.52;;
82387;SDS011;72027;47.420;9.310;2024-03-23T12:42:49;6.60;;;1.93;;
82387;SDS011;72027;47.420;9.310;2024-03-23T12:45:16;12.27;;;1.50;;
82387;SDS011;72027;47.420;9.310;2024-03-23T12:47:42;10.80;;;1.90;;
82387;SDS011;72027;47.420;9.310;2024-03-23T12:50:10;9.52;;;1.90;;
82387;SDS011;72027;47.420;9.310;2024-03-23T12:52:36;8.20;;;1.92;;
82387;SDS011;72027;47.420;9.310;2024-03-23T12:55:04;7.00;;;1.88;;
82387;SDS011;72027;47.420;9.310;2024-03-23T12:57:31;6.70;;;2.22;;
82387;SDS011;72027;47.420;9.310;2024-03-23T12:59:58;8.60;;;1.88;;
82387;SDS011;72027;47.420;9.310;2024-03-23T13:02:24;4.47;;;1.80;;
82387;SDS011;72027;47.420;9.310;2024-03-23T13:04:51;5.47;;;2.22;;
82387;SDS011;72027;47.420;9.310;2024-03-23T13:07:20;4.75;;;1.60;;
82387;SDS011;72027;47.420;9.310;2024-03-23T13:09:49;4.85;;;1.85;;
82387;SDS011;72027;47.420;9.310;2024-03-23T13:12:16;7.63;;;2.75;;
82387;SDS011;72027;47.420;9.310;2024-03-23T13:14:46;5.10;;;1.70;;
82387;SDS011;72027;47.420;9.310;2024-03-23T13:17:12;6.75;;;2.30;;
82387;SDS011;72027;47.420;9.310;2024-03-23T13:19:40;3.97;;;1.73;;
82387;SDS011;72027;47.420;9.310;2024-03-23T13:22:06;5.43;;;1.53;;
82387;SDS011;72027;47.420;9.310;2024-03-23T13:24:35;6.85;;;1.40;;
82387;SDS011;72027;47.420;9.310;2024-03-23T13:27:01;5.38;;;1.38;;
82387;SDS011;72027;47.420;9.310;2024-03-23T13:29:30;3.40;;;1.10;;
82387;SDS011;72027;47.420;9.310;2024-03-23T13:31:56;6.07;;;1.50;;
82387;SDS011;72027;47.420;9.310;2024-03-23T13:34:23;9.55;;;1.85;;
82387;SDS011;72027;47.420;9.310;2024-03-23T13:36:49;7.00;;;1.73;;
82387;SDS011;72027;47.420;9.310;2024-03-23T13:39:16;10.30;;;1.73;;
82387;SDS011;72027;47.420;9.310;2024-03-23T13:41:43;8.57;;;1.60;;
82387;SDS011;72027;47.420;9.310;2024-03-23T13:44:12;8.45;;;3.03;;
82387;SDS011;72027;47.420;9.310;2024-03-23T13:46:39;4.45;;;1.88;;
82387;SDS011;72027;47.420;9.310;2024-03-23T13:49:08;5.32;;;1.52;;
82387;SDS011;72027;47.420;9.310;2024-03-23T13:51:46;5.68;;;1.80;;
82387;SDS011;72027;47.420;9.310;2024-03-23T13:54:13;10.30;;;1.73;;
82387;SDS011;72027;47.420;9.310;2024-03-23T13:56:39;8.10;;;2.42;;
82387;SDS011;72027;47.420;9.310;2024-03-23T13:59:08;9.20;;;1.65;;
82387;SDS011;72027;47.420;9.310;2024-03-23T14:01:34;2.88;;;1.90;;
82387;SDS011;72027;47.420;9.310;2024-03-23T14:06:26;4.90;;;1.60;;
82387;SDS011;72027;47.420;9.310;2024-03-23T14:08:56;8.25;;;3.00;;
82387;SDS011;72027;47.420;9.310;2024-03-23T14:11:22;5.47;;;1.80;;
82387;SDS011;72027;47.420;9.310;2024-03-23T14:13:51;7.05;;;1.98;;
82387;SDS011;72027;47.420;9.310;2024-03-23T14:16:19;4.55;;;1.77;;
82387;SDS011;72027;47.420;9.310;2024-03-23T14:18:46;5.53;;;1.90;;
82387;SDS011;72027;47.420;9.310;2024-03-23T14:21:12;6.30;;;1.87;;
82387;SDS011;72027;47.420;9.310;2024-03-23T14:23:39;6.25;;;1.65;;
82387;SDS011;72027;47.420;9.310;2024-03-23T14:26:06;4.10;;;1.67;;
82387;SDS011;72027;47.420;9.310;2024-03-23T14:28:33;7.03;;;1.88;;
82387;SDS011;72027;47.420;9.310;2024-03-23T14:33:30;4.38;;;1.65;;
82387;SDS011;72027;47.420;9.310;2024-03-23T14:35:57;4.13;;;1.45;;
82387;SDS011;72027;47.420;9.310;2024-03-23T14:38:24;6.53;;;1.40;;
82387;SDS011;72027;47.420;9.310;2024-03-23T14:40:50;4.60;;;1.10;;
82387;SDS011;72027;47.420;9.310;2024-03-23T14:43:18;5.55;;;1.23;;
82387;SDS011;72027;47.420;9.310;2024-03-23T14:45:48;5.93;;;1.57;;
82387;SDS011;72027;47.420;9.310;2024-03-23T14:48:34;6.38;;;1.55;;
82387;SDS011;72027;47.420;9.310;2024-03-23T14:51:01;4.75;;;1.55;;
82387;SDS011;72027;47.420;9.310;2024-03-23T14:53:30;10.85;;;1.83;;
82387;SDS011;72027;47.420;9.310;2024-03-23T14:55:56;8.38;;;1.73;;
82387;SDS011;72027;47.420;9.310;2024-03-23T14:58:23;5.78;;;1.83;;
82387;SDS011;72027;47.420;9.310;2024-03-23T15:03:17;9.05;;;2.10;;
82387;SDS011;72027;47.420;9.310;2024-03-23T15:05:52;4.60;;;1.38;;
82387;SDS011;72027;47.420;9.310;2024-03-23T15:08:19;6.00;;;1.60;;
82387;SDS011;72027;47.420;9.310;2024-03-23T15:10:45;3.00;;;1.38;;
82387;SDS011;72027;47.420;9.310;2024-03-23T15:13:12;3.65;;;1.25;;
82387;SDS011;72027;47.420;9.310;2024-03-23T15:15:38;9.43;;;1.92;;
82387;SDS011;72027;47.420;9.310;2024-03-23T15:18:07;7.13;;;1.40;;
82387;SDS011;72027;47.420;9.310;2024-03-23T15:20:32;4.40;;;1.53;;
82387;SDS011;72027;47.420;9.310;2024-03-23T15:23:02;7.18;;;1.65;;
82387;SDS011;72027;47.420;9.310;2024-03-23T15:25:28;6.68;;;1.50;;
82387;SDS011;72027;47.420;9.310;2024-03-23T15:27:56;6.10;;;1.55;;
82387;SDS011;72027;47.420;9.310;2024-03-23T15:32:49;9.65;;;1.85;;
82387;SDS011;72027;47.420;9.310;2024-03-23T15:35:16;5.50;;;1.45;;
82387;SDS011;72027;47.420;9.310;2024-03-23T15:37:43;13.77;;;1.58;;
82387;SDS011;72027;47.420;9.310;2024-03-23T15:40:11;9.73;;;1.37;;
82387;SDS011;72027;47.420;9.310;2024-03-23T15:42:39;8.80;;;1.60;;
82387;SDS011;72027;47.420;9.310;2024-03-23T15:45:06;11.67;;;1.63;;
82387;SDS011;72027;47.420;9.310;2024-03-23T15:47:34;6.38;;;1.60;;
82387;SDS011;72027;47.420;9.310;2024-03-23T15:50:00;6.13;;;1.35;;
82387;SDS011;72027;47.420;9.310;2024-03-23T15:52:28;5.18;;;1.48;;
82387;SDS011;72027;47.420;9.310;2024-03-23T15:54:54;6.90;;;1.83;;
82387;SDS011;72027;47.420;9.310;2024-03-23T15:57:24;8.80;;;1.60;;
82387;SDS011;72027;47.420;9.310;2024-03-23T15:59:50;8.65;;;1.60;;
82387;SDS011;72027;47.420;9.310;2024-03-23T16:02:17;8.52;;;1.65;;
82387;SDS011;72027;47.420;9.310;2024-03-23T16:04:43;5.17;;;1.70;;
82387;SDS011;72027;47.420;9.310;2024-03-23T16:07:11;11.05;;;1.80;;
82387;SDS011;72027;47.420;9.310;2024-03-23T16:09:37;4.80;;;1.73;;
82387;SDS011;72027;47.420;9.310;2024-03-23T16:12:04;3.72;;;1.33;;
82387;SDS011;72027;47.420;9.310;2024-03-23T16:14:33;5.97;;;1.50;;
82387;SDS011;72027;47.420;9.310;2024-03-23T16:16:59;5.10;;;1.45;;
82387;SDS011;72027;47.420;9.310;2024-03-23T16:19:26;8.75;;;1.67;;
82387;SDS011;72027;47.420;9.310;2024-03-23T16:21:53;4.97;;;1.13;;
82387;SDS011;72027;47.420;9.310;2024-03-23T16:24:20;8.90;;;1.65;;
82387;SDS011;72027;47.420;9.310;2024-03-23T16:26:47;3.70;;;1.20;;
82387;SDS011;72027;47.420;9.310;2024-03-23T16:29:14;4.70;;;1.45;;
82387;SDS011;72027;47.420;9.310;2024-03-23T16:31:43;2.60;;;1.08;;
82387;SDS011;72027;47.420;9.310;2024-03-23T16:34:09;8.07;;;1.48;;